Аэропорт: Мурманск. Мурманск

ICAO: ULMM

METAR:
2019/03/26 13:00
ULMM 261300Z 30003MPS CAVOK M01/M10 Q1007 R31/090070 NOSIG RMK QFE748
METAR:
2019/03/26 12:24
TAF TAF ULMM 261051Z 2612/2712 29003MPS 9999 SCT020 
      TEMPO 2612/2621 32003G08MPS 
      TEMPO 2621/2709 25003G08MPS 
      TEMPO 2709/2712 23004G09MPS 5000 -SHSN BKN011 BKN020CB